createdAt,value
2022-12-20T00:00:02.124Z,9.02
2022-12-20T00:15:01.760Z,9.09
2022-12-20T00:30:02.442Z,9.2
2022-12-20T00:45:02.101Z,9.29
2022-12-20T01:00:01.757Z,9.35
2022-12-20T01:15:02.371Z,9.43
2022-12-20T01:30:02.039Z,9.52
2022-12-20T01:45:01.725Z,9.61
2022-12-20T02:00:02.394Z,9.69
2022-12-20T02:15:02.043Z,9.76
2022-12-20T02:30:01.825Z,9.84
2022-12-20T02:45:02.552Z,9.9
2022-12-20T03:00:02.199Z,9.99
2022-12-20T03:15:01.884Z,10.09
2022-12-20T03:30:01.627Z,10.14
2022-12-20T03:45:02.258Z,10.21
2022-12-20T04:00:01.944Z,10.28
2022-12-20T04:15:01.605Z,10.31
2022-12-20T04:30:02.283Z,10.39
2022-12-20T04:45:01.986Z,10.4
2022-12-20T05:00:01.670Z,10.36
2022-12-20T05:15:02.343Z,10.39
2022-12-20T05:30:01.620Z,10.46
2022-12-20T05:45:02.286Z,10.51
2022-12-20T06:00:01.910Z,10.6
2022-12-20T06:15:02.573Z,10.66
2022-12-20T06:30:02.271Z,10.67
2022-12-20T06:45:01.971Z,10.67
2022-12-20T07:00:01.709Z,10.73
2022-12-20T07:15:02.430Z,10.76
2022-12-20T07:30:02.158Z,10.77
2022-12-20T07:45:01.817Z,10.83
2022-12-20T08:00:02.603Z,10.81
2022-12-20T08:15:02.292Z,10.87
2022-12-20T08:30:02.008Z,10.95
2022-12-20T08:45:01.714Z,11.01
2022-12-20T09:00:02.437Z,11.01
2022-12-20T09:15:02.153Z,11.08
2022-12-20T09:30:01.928Z,11.22
2022-12-20T09:45:01.672Z,11.46
2022-12-20T10:00:02.430Z,11.5
2022-12-20T10:15:02.143Z,11.6
2022-12-20T10:30:01.948Z,11.64
2022-12-20T10:45:01.653Z,11.67
2022-12-20T11:00:02.374Z,11.73
2022-12-20T11:15:02.203Z,11.81
2022-12-20T11:30:01.916Z,11.77
2022-12-20T11:45:09.300Z,11.77
2022-12-20T12:00:01.665Z,11.82
2022-12-20T12:15:02.422Z,11.96
2022-12-20T12:30:02.241Z,11.86
2022-12-20T12:45:01.999Z,11.84
2022-12-20T13:00:01.652Z,11.85
2022-12-20T13:15:02.347Z,11.77
2022-12-20T13:30:02.022Z,11.74
2022-12-20T13:45:01.778Z,11.71
2022-12-20T14:00:07.081Z,11.68
2022-12-20T14:15:02.255Z,11.67
2022-12-20T14:30:02.009Z,11.7
2022-12-20T14:45:01.783Z,11.68
2022-12-20T15:00:02.451Z,11.67
2022-12-20T15:15:23.935Z,11.64
2022-12-20T15:30:01.920Z,11.55
2022-12-20T15:45:01.673Z,11.56
2022-12-20T16:00:03.406Z,11.51
2022-12-20T16:15:02.611Z,11.52
2022-12-20T16:30:02.349Z,11.5
2022-12-20T16:45:02.021Z,11.42
2022-12-20T17:00:01.749Z,11.39
2022-12-20T17:15:02.498Z,11.36
2022-12-20T17:30:02.201Z,11.34
2022-12-20T17:45:01.930Z,11.3
2022-12-20T18:00:01.659Z,11.29
2022-12-20T18:15:02.558Z,11.27
2022-12-20T18:30:02.377Z,11.25
2022-12-20T18:45:02.053Z,11.2
2022-12-20T19:00:01.761Z,11.16
2022-12-20T19:15:02.433Z,11.15
2022-12-20T19:30:02.148Z,11.13
2022-12-20T19:45:01.861Z,11.07
2022-12-20T20:00:02.541Z,11.08
2022-12-20T20:15:02.204Z,11.07
2022-12-20T20:30:01.963Z,11.06
2022-12-20T20:45:01.677Z,11.06
2022-12-20T21:00:02.325Z,11.07
2022-12-20T21:15:22.126Z,11.06
2022-12-20T21:30:02.518Z,11.03
2022-12-20T21:45:02.136Z,11
2022-12-20T22:00:01.855Z,11.01
2022-12-20T22:15:02.527Z,10.98
2022-12-20T22:30:02.225Z,11
2022-12-20T22:45:01.845Z,11.02
2022-12-20T23:00:02.473Z,10.97
2022-12-20T23:15:04.355Z,10.99
2022-12-20T23:30:02.289Z,10.98
2022-12-20T23:45:01.925Z,10.98
